sensor_id;sensor_type;location;lat;lon;timestamp;P1;durP1;ratioP1;P2;durP2;ratioP2
81396;SDS011;70852;49.908;8.126;2024-01-15T00:00:37;10.93;;;3.72;;
81396;SDS011;70852;49.908;8.126;2024-01-15T00:03:08;12.38;;;4.60;;
81396;SDS011;70852;49.908;8.126;2024-01-15T00:05:35;14.82;;;4.60;;
81396;SDS011;70852;49.908;8.126;2024-01-15T00:08:01;21.85;;;5.78;;
81396;SDS011;70852;49.908;8.126;2024-01-15T00:10:28;18.05;;;5.60;;
81396;SDS011;70852;49.908;8.126;2024-01-15T00:12:54;11.27;;;4.82;;
81396;SDS011;70852;49.908;8.126;2024-01-15T00:15:19;12.77;;;4.32;;
81396;SDS011;70852;49.908;8.126;2024-01-15T00:17:45;17.63;;;5.18;;
81396;SDS011;70852;49.908;8.126;2024-01-15T00:20:10;13.95;;;4.30;;
81396;SDS011;70852;49.908;8.126;2024-01-15T00:22:36;18.13;;;5.55;;
81396;SDS011;70852;49.908;8.126;2024-01-15T00:25:03;14.55;;;4.65;;
81396;SDS011;70852;49.908;8.126;2024-01-15T00:27:29;21.33;;;5.72;;
81396;SDS011;70852;49.908;8.126;2024-01-15T00:29:54;11.02;;;4.15;;
81396;SDS011;70852;49.908;8.126;2024-01-15T00:32:29;14.48;;;4.82;;
81396;SDS011;70852;49.908;8.126;2024-01-15T00:34:57;11.55;;;3.95;;
81396;SDS011;70852;49.908;8.126;2024-01-15T00:37:30;18.60;;;6.72;;
81396;SDS011;70852;49.908;8.126;2024-01-15T00:39:58;17.30;;;5.63;;
81396;SDS011;70852;49.908;8.126;2024-01-15T00:42:23;12.27;;;3.78;;
81396;SDS011;70852;49.908;8.126;2024-01-15T00:44:51;16.88;;;5.53;;
81396;SDS011;70852;49.908;8.126;2024-01-15T00:47:18;14.95;;;5.10;;
81396;SDS011;70852;49.908;8.126;2024-01-15T00:49:46;13.10;;;3.97;;
81396;SDS011;70852;49.908;8.126;2024-01-15T00:52:11;9.82;;;4.38;;
81396;SDS011;70852;49.908;8.126;2024-01-15T00:54:37;10.50;;;5.82;;
81396;SDS011;70852;49.908;8.126;2024-01-15T00:57:05;12.48;;;4.75;;
81396;SDS011;70852;49.908;8.126;2024-01-15T00:59:30;9.77;;;3.42;;
81396;SDS011;70852;49.908;8.126;2024-01-15T01:01:58;17.02;;;5.38;;
81396;SDS011;70852;49.908;8.126;2024-01-15T01:04:25;14.20;;;4.53;;
81396;SDS011;70852;49.908;8.126;2024-01-15T01:06:50;18.33;;;6.03;;
81396;SDS011;70852;49.908;8.126;2024-01-15T01:09:16;18.98;;;5.32;;
81396;SDS011;70852;49.908;8.126;2024-01-15T01:11:43;18.17;;;5.60;;
81396;SDS011;70852;49.908;8.126;2024-01-15T01:14:11;15.63;;;5.40;;
81396;SDS011;70852;49.908;8.126;2024-01-15T01:16:41;8.05;;;3.65;;
81396;SDS011;70852;49.908;8.126;2024-01-15T01:19:09;13.07;;;4.90;;
81396;SDS011;70852;49.908;8.126;2024-01-15T01:24:01;15.13;;;4.57;;
81396;SDS011;70852;49.908;8.126;2024-01-15T01:26:29;7.13;;;3.30;;
81396;SDS011;70852;49.908;8.126;2024-01-15T01:28:57;17.52;;;5.50;;
81396;SDS011;70852;49.908;8.126;2024-01-15T01:31:24;9.75;;;4.28;;
81396;SDS011;70852;49.908;8.126;2024-01-15T01:33:51;14.18;;;4.50;;
81396;SDS011;70852;49.908;8.126;2024-01-15T01:36:17;16.48;;;5.20;;
81396;SDS011;70852;49.908;8.126;2024-01-15T01:38:42;13.80;;;4.35;;
81396;SDS011;70852;49.908;8.126;2024-01-15T01:41:07;11.88;;;3.63;;
81396;SDS011;70852;49.908;8.126;2024-01-15T01:43:33;11.80;;;4.30;;
81396;SDS011;70852;49.908;8.126;2024-01-15T01:45:59;14.18;;;5.75;;
81396;SDS011;70852;49.908;8.126;2024-01-15T01:48:25;9.25;;;3.63;;
81396;SDS011;70852;49.908;8.126;2024-01-15T01:50:54;17.05;;;4.95;;
81396;SDS011;70852;49.908;8.126;2024-01-15T01:53:22;16.75;;;3.95;;
81396;SDS011;70852;49.908;8.126;2024-01-15T01:55:52;13.50;;;4.53;;
81396;SDS011;70852;49.908;8.126;2024-01-15T01:58:19;12.38;;;5.13;;
81396;SDS011;70852;49.908;8.126;2024-01-15T02:00:47;11.88;;;4.68;;
81396;SDS011;70852;49.908;8.126;2024-01-15T02:03:15;13.98;;;4.55;;
81396;SDS011;70852;49.908;8.126;2024-01-15T02:05:43;16.23;;;4.95;;
81396;SDS011;70852;49.908;8.126;2024-01-15T02:08:09;12.35;;;4.50;;
81396;SDS011;70852;49.908;8.126;2024-01-15T02:10:38;9.13;;;2.97;;
81396;SDS011;70852;49.908;8.126;2024-01-15T02:13:03;10.65;;;4.13;;
81396;SDS011;70852;49.908;8.126;2024-01-15T02:15:28;11.32;;;3.53;;
81396;SDS011;70852;49.908;8.126;2024-01-15T02:18:08;13.18;;;4.53;;
81396;SDS011;70852;49.908;8.126;2024-01-15T02:20:33;17.80;;;4.30;;
81396;SDS011;70852;49.908;8.126;2024-01-15T02:25:45;13.35;;;3.80;;
81396;SDS011;70852;49.908;8.126;2024-01-15T02:28:14;10.55;;;3.17;;
81396;SDS011;70852;49.908;8.126;2024-01-15T02:30:41;14.65;;;3.67;;
81396;SDS011;70852;49.908;8.126;2024-01-15T02:33:07;11.63;;;3.35;;
81396;SDS011;70852;49.908;8.126;2024-01-15T02:35:33;15.27;;;4.80;;
81396;SDS011;70852;49.908;8.126;2024-01-15T02:38:02;17.38;;;4.82;;
81396;SDS011;70852;49.908;8.126;2024-01-15T02:40:31;14.02;;;3.75;;
81396;SDS011;70852;49.908;8.126;2024-01-15T02:42:58;8.43;;;4.20;;
81396;SDS011;70852;49.908;8.126;2024-01-15T02:45:26;7.75;;;3.50;;
81396;SDS011;70852;49.908;8.126;2024-01-15T02:47:52;10.45;;;3.72;;
81396;SDS011;70852;49.908;8.126;2024-01-15T02:50:17;8.90;;;3.30;;
81396;SDS011;70852;49.908;8.126;2024-01-15T02:52:42;13.48;;;4.05;;
81396;SDS011;70852;49.908;8.126;2024-01-15T02:55:10;10.60;;;4.32;;
81396;SDS011;70852;49.908;8.126;2024-01-15T02:57:38;9.20;;;3.20;;
81396;SDS011;70852;49.908;8.126;2024-01-15T03:00:06;10.65;;;5.28;;
81396;SDS011;70852;49.908;8.126;2024-01-15T03:02:37;10.65;;;3.50;;
81396;SDS011;70852;49.908;8.126;2024-01-15T03:05:08;12.38;;;3.13;;
81396;SDS011;70852;49.908;8.126;2024-01-15T03:07:36;12.70;;;4.00;;
81396;SDS011;70852;49.908;8.126;2024-01-15T03:10:06;13.85;;;3.60;;
81396;SDS011;70852;49.908;8.126;2024-01-15T03:14:59;11.67;;;3.43;;
81396;SDS011;70852;49.908;8.126;2024-01-15T03:17:25;7.53;;;3.30;;
81396;SDS011;70852;49.908;8.126;2024-01-15T03:19:50;11.43;;;3.63;;
81396;SDS011;70852;49.908;8.126;2024-01-15T03:22:16;13.65;;;4.85;;
81396;SDS011;70852;49.908;8.126;2024-01-15T03:24:41;13.80;;;4.40;;
81396;SDS011;70852;49.908;8.126;2024-01-15T03:27:07;10.38;;;3.13;;
81396;SDS011;70852;49.908;8.126;2024-01-15T03:29:35;10.63;;;3.83;;
81396;SDS011;70852;49.908;8.126;2024-01-15T03:32:00;9.43;;;3.83;;
81396;SDS011;70852;49.908;8.126;2024-01-15T03:34:26;12.55;;;3.67;;
81396;SDS011;70852;49.908;8.126;2024-01-15T03:36:51;16.67;;;5.43;;
81396;SDS011;70852;49.908;8.126;2024-01-15T03:39:16;11.15;;;4.15;;
81396;SDS011;70852;49.908;8.126;2024-01-15T03:41:44;12.30;;;4.35;;
81396;SDS011;70852;49.908;8.126;2024-01-15T03:46:42;15.02;;;3.67;;
81396;SDS011;70852;49.908;8.126;2024-01-15T03:49:09;12.35;;;4.80;;
81396;SDS011;70852;49.908;8.126;2024-01-15T03:51:35;14.75;;;4.93;;
81396;SDS011;70852;49.908;8.126;2024-01-15T03:54:02;13.90;;;3.88;;
81396;SDS011;70852;49.908;8.126;2024-01-15T03:56:27;9.02;;;3.40;;
81396;SDS011;70852;49.908;8.126;2024-01-15T03:58:53;7.72;;;3.35;;
81396;SDS011;70852;49.908;8.126;2024-01-15T04:01:18;12.65;;;4.88;;
81396;SDS011;70852;49.908;8.126;2024-01-15T04:03:46;11.55;;;3.85;;
81396;SDS011;70852;49.908;8.126;2024-01-15T04:06:11;7.72;;;2.83;;
81396;SDS011;70852;49.908;8.126;2024-01-15T04:08:39;9.63;;;3.95;;
81396;SDS011;70852;49.908;8.126;2024-01-15T04:11:04;13.23;;;4.90;;
81396;SDS011;70852;49.908;8.126;2024-01-15T04:13:32;13.15;;;3.85;;
81396;SDS011;70852;49.908;8.126;2024-01-15T04:16:00;11.90;;;4.20;;
81396;SDS011;70852;49.908;8.126;2024-01-15T04:18:28;14.30;;;4.13;;
81396;SDS011;70852;49.908;8.126;2024-01-15T04:20:53;14.25;;;4.55;;
81396;SDS011;70852;49.908;8.126;2024-01-15T04:23:21;11.95;;;4.30;;
81396;SDS011;70852;49.908;8.126;2024-01-15T04:25:49;8.60;;;4.25;;
81396;SDS011;70852;49.908;8.126;2024-01-15T04:28:14;11.45;;;4.30;;
81396;SDS011;70852;49.908;8.126;2024-01-15T04:30:42;14.55;;;3.63;;
81396;SDS011;70852;49.908;8.126;2024-01-15T04:33:10;9.50;;;3.22;;
81396;SDS011;70852;49.908;8.126;2024-01-15T04:35:35;11.65;;;3.85;;
81396;SDS011;70852;49.908;8.126;2024-01-15T04:38:03;12.85;;;3.78;;
81396;SDS011;70852;49.908;8.126;2024-01-15T04:40:33;14.23;;;4.28;;
81396;SDS011;70852;49.908;8.126;2024-01-15T04:43:01;7.82;;;2.65;;
81396;SDS011;70852;49.908;8.126;2024-01-15T04:45:28;17.58;;;5.00;;
81396;SDS011;70852;49.908;8.126;2024-01-15T04:47:55;14.20;;;4.18;;
81396;SDS011;70852;49.908;8.126;2024-01-15T04:50:25;12.40;;;4.28;;
81396;SDS011;70852;49.908;8.126;2024-01-15T04:55:18;8.70;;;3.50;;
81396;SDS011;70852;49.908;8.126;2024-01-15T04:57:46;13.73;;;4.07;;
81396;SDS011;70852;49.908;8.126;2024-01-15T05:00:11;11.95;;;4.22;;
81396;SDS011;70852;49.908;8.126;2024-01-15T05:02:40;14.32;;;4.57;;
81396;SDS011;70852;49.908;8.126;2024-01-15T05:05:05;14.70;;;4.53;;
81396;SDS011;70852;49.908;8.126;2024-01-15T05:07:31;15.18;;;4.45;;
81396;SDS011;70852;49.908;8.126;2024-01-15T05:09:57;13.63;;;4.35;;
81396;SDS011;70852;49.908;8.126;2024-01-15T05:12:24;13.40;;;4.28;;
81396;SDS011;70852;49.908;8.126;2024-01-15T05:14:51;12.95;;;4.13;;
81396;SDS011;70852;49.908;8.126;2024-01-15T05:17:19;14.40;;;4.75;;
81396;SDS011;70852;49.908;8.126;2024-01-15T05:19:50;12.73;;;4.20;;
81396;SDS011;70852;49.908;8.126;2024-01-15T05:22:15;12.93;;;4.35;;
81396;SDS011;70852;49.908;8.126;2024-01-15T05:24:41;10.75;;;4.22;;
81396;SDS011;70852;49.908;8.126;2024-01-15T05:27:10;13.43;;;4.85;;
81396;SDS011;70852;49.908;8.126;2024-01-15T05:29:36;13.48;;;4.15;;
81396;SDS011;70852;49.908;8.126;2024-01-15T05:32:01;13.65;;;4.85;;
81396;SDS011;70852;49.908;8.126;2024-01-15T05:34:26;12.40;;;4.47;;
81396;SDS011;70852;49.908;8.126;2024-01-15T05:39:21;9.13;;;3.30;;
81396;SDS011;70852;49.908;8.126;2024-01-15T05:41:47;9.18;;;3.45;;
81396;SDS011;70852;49.908;8.126;2024-01-15T05:44:14;9.23;;;3.55;;
81396;SDS011;70852;49.908;8.126;2024-01-15T05:46:40;12.43;;;3.90;;
81396;SDS011;70852;49.908;8.126;2024-01-15T05:49:10;16.33;;;4.45;;
81396;SDS011;70852;49.908;8.126;2024-01-15T05:51:39;12.35;;;4.63;;
81396;SDS011;70852;49.908;8.126;2024-01-15T05:54:04;14.93;;;4.63;;
81396;SDS011;70852;49.908;8.126;2024-01-15T05:56:34;10.90;;;3.72;;
81396;SDS011;70852;49.908;8.126;2024-01-15T05:59:06;9.15;;;2.80;;
81396;SDS011;70852;49.908;8.126;2024-01-15T06:01:34;12.35;;;4.38;;
81396;SDS011;70852;49.908;8.126;2024-01-15T06:03:59;7.07;;;3.17;;
81396;SDS011;70852;49.908;8.126;2024-01-15T06:06:32;8.45;;;3.55;;
81396;SDS011;70852;49.908;8.126;2024-01-15T06:08:57;11.23;;;4.28;;
81396;SDS011;70852;49.908;8.126;2024-01-15T06:11:30;7.68;;;2.70;;
81396;SDS011;70852;49.908;8.126;2024-01-15T06:13:58;12.57;;;4.43;;
81396;SDS011;70852;49.908;8.126;2024-01-15T06:16:23;12.80;;;4.45;;
81396;SDS011;70852;49.908;8.126;2024-01-15T06:18:49;11.07;;;3.83;;
81396;SDS011;70852;49.908;8.126;2024-01-15T06:21:15;11.45;;;4.28;;
81396;SDS011;70852;49.908;8.126;2024-01-15T06:23:43;10.95;;;3.90;;
81396;SDS011;70852;49.908;8.126;2024-01-15T06:26:08;11.52;;;4.07;;
81396;SDS011;70852;49.908;8.126;2024-01-15T06:28:39;9.40;;;4.00;;
81396;SDS011;70852;49.908;8.126;2024-01-15T06:31:05;15.85;;;4.95;;
81396;SDS011;70852;49.908;8.126;2024-01-15T06:33:32;12.40;;;4.50;;
81396;SDS011;70852;49.908;8.126;2024-01-15T06:35:57;14.05;;;4.72;;
81396;SDS011;70852;49.908;8.126;2024-01-15T06:38:22;13.35;;;5.38;;
81396;SDS011;70852;49.908;8.126;2024-01-15T06:40:48;14.90;;;4.88;;
81396;SDS011;70852;49.908;8.126;2024-01-15T06:43:16;13.48;;;4.68;;
81396;SDS011;70852;49.908;8.126;2024-01-15T06:45:41;10.60;;;3.92;;
81396;SDS011;70852;49.908;8.126;2024-01-15T06:48:09;20.73;;;5.40;;
81396;SDS011;70852;49.908;8.126;2024-01-15T06:50:34;13.02;;;4.10;;
81396;SDS011;70852;49.908;8.126;2024-01-15T06:53:00;15.68;;;5.43;;
81396;SDS011;70852;49.908;8.126;2024-01-15T06:55:25;11.20;;;4.43;;
81396;SDS011;70852;49.908;8.126;2024-01-15T06:57:51;14.20;;;4.15;;
81396;SDS011;70852;49.908;8.126;2024-01-15T07:00:17;13.30;;;5.30;;
81396;SDS011;70852;49.908;8.126;2024-01-15T07:02:44;14.23;;;4.65;;
81396;SDS011;70852;49.908;8.126;2024-01-15T07:05:15;13.77;;;4.85;;
81396;SDS011;70852;49.908;8.126;2024-01-15T07:07:41;13.30;;;4.85;;
81396;SDS011;70852;49.908;8.126;2024-01-15T07:10:08;13.02;;;4.65;;
81396;SDS011;70852;49.908;8.126;2024-01-15T07:15:01;12.93;;;4.60;;
81396;SDS011;70852;49.908;8.126;2024-01-15T07:17:33;13.63;;;4.78;;
81396;SDS011;70852;49.908;8.126;2024-01-15T07:20:00;13.60;;;4.65;;
81396;SDS011;70852;49.908;8.126;2024-01-15T07:22:28;13.68;;;4.18;;
81396;SDS011;70852;49.908;8.126;2024-01-15T07:24:55;15.02;;;4.40;;
81396;SDS011;70852;49.908;8.126;2024-01-15T07:27:23;16.58;;;4.97;;
81396;SDS011;70852;49.908;8.126;2024-01-15T07:29:48;12.52;;;4.63;;
81396;SDS011;70852;49.908;8.126;2024-01-15T07:32:17;17.65;;;3.95;;
81396;SDS011;70852;49.908;8.126;2024-01-15T07:34:42;17.75;;;5.63;;
81396;SDS011;70852;49.908;8.126;2024-01-15T07:37:10;14.27;;;3.50;;
81396;SDS011;70852;49.908;8.126;2024-01-15T07:39:37;14.13;;;5.28;;
81396;SDS011;70852;49.908;8.126;2024-01-15T07:42:05;14.55;;;4.32;;
81396;SDS011;70852;49.908;8.126;2024-01-15T07:44:33;9.85;;;4.57;;
81396;SDS011;70852;49.908;8.126;2024-01-15T07:46:58;12.43;;;4.63;;
81396;SDS011;70852;49.908;8.126;2024-01-15T07:49:24;11.32;;;4.82;;
81396;SDS011;70852;49.908;8.126;2024-01-15T07:51:49;13.65;;;4.57;;
81396;SDS011;70852;49.908;8.126;2024-01-15T07:54:17;13.52;;;4.68;;
81396;SDS011;70852;49.908;8.126;2024-01-15T07:56:56;11.88;;;5.45;;
81396;SDS011;70852;49.908;8.126;2024-01-15T07:59:22;12.57;;;4.78;;
81396;SDS011;70852;49.908;8.126;2024-01-15T08:01:48;6.60;;;3.20;;
81396;SDS011;70852;49.908;8.126;2024-01-15T08:04:13;10.82;;;4.30;;
81396;SDS011;70852;49.908;8.126;2024-01-15T08:06:41;13.48;;;4.70;;
81396;SDS011;70852;49.908;8.126;2024-01-15T08:09:06;15.65;;;4.63;;
81396;SDS011;70852;49.908;8.126;2024-01-15T08:11:33;13.10;;;3.70;;
81396;SDS011;70852;49.908;8.126;2024-01-15T08:13:59;9.68;;;3.47;;
81396;SDS011;70852;49.908;8.126;2024-01-15T08:16:29;13.82;;;4.85;;
81396;SDS011;70852;49.908;8.126;2024-01-15T08:18:57;12.90;;;3.05;;
81396;SDS011;70852;49.908;8.126;2024-01-15T08:21:26;16.23;;;4.15;;
81396;SDS011;70852;49.908;8.126;2024-01-15T08:23:55;13.30;;;4.25;;
81396;SDS011;70852;49.908;8.126;2024-01-15T08:26:21;9.98;;;4.28;;
81396;SDS011;70852;49.908;8.126;2024-01-15T08:28:47;11.10;;;4.10;;
81396;SDS011;70852;49.908;8.126;2024-01-15T08:31:15;13.98;;;4.72;;
81396;SDS011;70852;49.908;8.126;2024-01-15T08:33:42;12.73;;;4.68;;
81396;SDS011;70852;49.908;8.126;2024-01-15T08:36:09;8.70;;;2.85;;
81396;SDS011;70852;49.908;8.126;2024-01-15T08:38:37;10.45;;;3.97;;
81396;SDS011;70852;49.908;8.126;2024-01-15T08:41:05;14.52;;;4.38;;
81396;SDS011;70852;49.908;8.126;2024-01-15T08:43:33;13.07;;;4.40;;
81396;SDS011;70852;49.908;8.126;2024-01-15T08:45:59;12.07;;;4.22;;
81396;SDS011;70852;49.908;8.126;2024-01-15T08:48:24;12.50;;;4.45;;
81396;SDS011;70852;49.908;8.126;2024-01-15T08:50:52;6.60;;;3.40;;
81396;SDS011;70852;49.908;8.126;2024-01-15T08:53:22;12.18;;;4.18;;
81396;SDS011;70852;49.908;8.126;2024-01-15T08:55:48;10.88;;;4.22;;
81396;SDS011;70852;49.908;8.126;2024-01-15T08:58:14;11.02;;;3.80;;
81396;SDS011;70852;49.908;8.126;2024-01-15T09:00:40;7.13;;;3.22;;
81396;SDS011;70852;49.908;8.126;2024-01-15T09:03:06;12.52;;;4.22;;
81396;SDS011;70852;49.908;8.126;2024-01-15T09:05:33;11.52;;;4.25;;
81396;SDS011;70852;49.908;8.126;2024-01-15T09:07:58;11.38;;;4.40;;
81396;SDS011;70852;49.908;8.126;2024-01-15T09:10:26;8.45;;;3.47;;
81396;SDS011;70852;49.908;8.126;2024-01-15T09:12:51;15.02;;;4.40;;
81396;SDS011;70852;49.908;8.126;2024-01-15T09:15:17;13.80;;;4.30;;
81396;SDS011;70852;49.908;8.126;2024-01-15T09:17:50;12.32;;;4.30;;
81396;SDS011;70852;49.908;8.126;2024-01-15T09:20:16;8.40;;;3.70;;
81396;SDS011;70852;49.908;8.126;2024-01-15T09:22:41;13.23;;;4.97;;
81396;SDS011;70852;49.908;8.126;2024-01-15T09:25:10;9.65;;;3.85;;
81396;SDS011;70852;49.908;8.126;2024-01-15T09:27:35;11.27;;;4.80;;
81396;SDS011;70852;49.908;8.126;2024-01-15T09:30:01;8.82;;;3.55;;
81396;SDS011;70852;49.908;8.126;2024-01-15T09:32:29;15.85;;;4.40;;
81396;SDS011;70852;49.908;8.126;2024-01-15T09:34:57;11.18;;;4.13;;
81396;SDS011;70852;49.908;8.126;2024-01-15T09:37:25;11.00;;;4.63;;
81396;SDS011;70852;49.908;8.126;2024-01-15T09:39:51;12.05;;;4.28;;
81396;SDS011;70852;49.908;8.126;2024-01-15T09:42:16;9.20;;;3.88;;
81396;SDS011;70852;49.908;8.126;2024-01-15T09:44:47;10.63;;;3.60;;
81396;SDS011;70852;49.908;8.126;2024-01-15T09:47:17;10.77;;;4.13;;
81396;SDS011;70852;49.908;8.126;2024-01-15T09:49:46;15.13;;;5.25;;
81396;SDS011;70852;49.908;8.126;2024-01-15T09:52:12;11.13;;;4.25;;
81396;SDS011;70852;49.908;8.126;2024-01-15T09:54:43;8.90;;;3.72;;
81396;SDS011;70852;49.908;8.126;2024-01-15T09:57:11;11.60;;;3.67;;
81396;SDS011;70852;49.908;8.126;2024-01-15T09:59:36;13.25;;;4.28;;
81396;SDS011;70852;49.908;8.126;2024-01-15T10:02:10;11.15;;;4.70;;
81396;SDS011;70852;49.908;8.126;2024-01-15T10:04:43;6.95;;;3.03;;
81396;SDS011;70852;49.908;8.126;2024-01-15T10:07:09;9.27;;;4.13;;
81396;SDS011;70852;49.908;8.126;2024-01-15T10:09:40;7.68;;;3.38;;
81396;SDS011;70852;49.908;8.126;2024-01-15T10:12:05;13.02;;;4.70;;
81396;SDS011;70852;49.908;8.126;2024-01-15T10:14:31;9.48;;;4.78;;
81396;SDS011;70852;49.908;8.126;2024-01-15T10:16:59;10.68;;;4.10;;
81396;SDS011;70852;49.908;8.126;2024-01-15T10:19:24;8.55;;;3.30;;
81396;SDS011;70852;49.908;8.126;2024-01-15T10:21:50;12.90;;;4.85;;
81396;SDS011;70852;49.908;8.126;2024-01-15T10:24:15;8.73;;;3.60;;
81396;SDS011;70852;49.908;8.126;2024-01-15T10:26:40;9.95;;;4.63;;
81396;SDS011;70852;49.908;8.126;2024-01-15T10:29:06;11.88;;;4.60;;
81396;SDS011;70852;49.908;8.126;2024-01-15T10:31:33;8.55;;;3.50;;
81396;SDS011;70852;49.908;8.126;2024-01-15T10:34:09;7.97;;;3.35;;
81396;SDS011;70852;49.908;8.126;2024-01-15T10:36:38;11.60;;;4.30;;
81396;SDS011;70852;49.908;8.126;2024-01-15T10:39:09;10.13;;;4.03;;
81396;SDS011;70852;49.908;8.126;2024-01-15T10:41:34;9.48;;;3.78;;
81396;SDS011;70852;49.908;8.126;2024-01-15T10:44:02;9.27;;;4.30;;
81396;SDS011;70852;49.908;8.126;2024-01-15T10:46:32;10.88;;;4.28;;
81396;SDS011;70852;49.908;8.126;2024-01-15T10:49:04;8.93;;;3.58;;
81396;SDS011;70852;49.908;8.126;2024-01-15T10:51:32;9.68;;;3.78;;
81396;SDS011;70852;49.908;8.126;2024-01-15T10:54:00;11.73;;;3.33;;
81396;SDS011;70852;49.908;8.126;2024-01-15T10:56:31;7.45;;;3.08;;
81396;SDS011;70852;49.908;8.126;2024-01-15T10:59:03;11.95;;;4.30;;
81396;SDS011;70852;49.908;8.126;2024-01-15T11:01:29;13.10;;;4.55;;
81396;SDS011;70852;49.908;8.126;2024-01-15T11:03:58;9.82;;;4.38;;
81396;SDS011;70852;49.908;8.126;2024-01-15T11:06:27;8.70;;;3.63;;
81396;SDS011;70852;49.908;8.126;2024-01-15T11:08:54;10.55;;;3.75;;
81396;SDS011;70852;49.908;8.126;2024-01-15T11:11:23;12.77;;;4.63;;
81396;SDS011;70852;49.908;8.126;2024-01-15T11:13:53;8.00;;;3.72;;
81396;SDS011;70852;49.908;8.126;2024-01-15T11:16:21;10.98;;;4.47;;
81396;SDS011;70852;49.908;8.126;2024-01-15T11:21:25;10.02;;;4.65;;
81396;SDS011;70852;49.908;8.126;2024-01-15T11:23:53;8.57;;;4.43;;
81396;SDS011;70852;49.908;8.126;2024-01-15T11:34:20;9.52;;;4.28;;
81396;SDS011;70852;49.908;8.126;2024-01-15T11:41:51;8.82;;;3.83;;
81396;SDS011;70852;49.908;8.126;2024-01-15T11:44:17;6.60;;;3.15;;
81396;SDS011;70852;49.908;8.126;2024-01-15T11:46:46;8.88;;;4.18;;
81396;SDS011;70852;49.908;8.126;2024-01-15T11:49:29;7.22;;;3.72;;
81396;SDS011;70852;49.908;8.126;2024-01-15T11:51:59;7.88;;;2.92;;
81396;SDS011;70852;49.908;8.126;2024-01-15T11:54:29;8.55;;;3.58;;
81396;SDS011;70852;49.908;8.126;2024-01-15T11:57:02;7.47;;;2.88;;
81396;SDS011;70852;49.908;8.126;2024-01-15T11:59:37;8.27;;;3.08;;
81396;SDS011;70852;49.908;8.126;2024-01-15T12:02:02;8.18;;;3.03;;
81396;SDS011;70852;49.908;8.126;2024-01-15T12:04:32;6.80;;;2.65;;
81396;SDS011;70852;49.908;8.126;2024-01-15T12:06:58;5.93;;;2.75;;
81396;SDS011;70852;49.908;8.126;2024-01-15T12:09:25;8.10;;;2.92;;
81396;SDS011;70852;49.908;8.126;2024-01-15T12:11:54;8.50;;;3.42;;
81396;SDS011;70852;49.908;8.126;2024-01-15T12:14:25;6.65;;;2.55;;
81396;SDS011;70852;49.908;8.126;2024-01-15T12:16:54;8.07;;;3.08;;
81396;SDS011;70852;49.908;8.126;2024-01-15T12:19:19;7.15;;;3.22;;
81396;SDS011;70852;49.908;8.126;2024-01-15T12:21:48;8.77;;;3.05;;
81396;SDS011;70852;49.908;8.126;2024-01-15T12:24:16;8.05;;;2.85;;
81396;SDS011;70852;49.908;8.126;2024-01-15T12:26:44;8.65;;;2.88;;
81396;SDS011;70852;49.908;8.126;2024-01-15T12:29:10;7.35;;;2.85;;
81396;SDS011;70852;49.908;8.126;2024-01-15T12:31:36;7.60;;;3.60;;
81396;SDS011;70852;49.908;8.126;2024-01-15T12:34:03;4.30;;;2.05;;
81396;SDS011;70852;49.908;8.126;2024-01-15T12:36:31;6.35;;;3.05;;
81396;SDS011;70852;49.908;8.126;2024-01-15T12:39:00;8.60;;;2.53;;
81396;SDS011;70852;49.908;8.126;2024-01-15T12:41:28;5.95;;;2.50;;
81396;SDS011;70852;49.908;8.126;2024-01-15T12:43:53;6.40;;;2.42;;
81396;SDS011;70852;49.908;8.126;2024-01-15T12:46:18;7.90;;;2.53;;
81396;SDS011;70852;49.908;8.126;2024-01-15T12:48:44;5.78;;;2.63;;
81396;SDS011;70852;49.908;8.126;2024-01-15T12:51:12;6.40;;;2.78;;
81396;SDS011;70852;49.908;8.126;2024-01-15T12:53:37;6.75;;;2.40;;
81396;SDS011;70852;49.908;8.126;2024-01-15T12:56:05;10.32;;;3.13;;
81396;SDS011;70852;49.908;8.126;2024-01-15T12:58:35;6.22;;;3.10;;
81396;SDS011;70852;49.908;8.126;2024-01-15T13:01:00;6.72;;;2.50;;
81396;SDS011;70852;49.908;8.126;2024-01-15T13:03:27;5.53;;;2.88;;
81396;SDS011;70852;49.908;8.126;2024-01-15T13:05:53;9.13;;;2.75;;
81396;SDS011;70852;49.908;8.126;2024-01-15T13:08:18;6.45;;;2.50;;
81396;SDS011;70852;49.908;8.126;2024-01-15T13:10:51;7.43;;;2.50;;
81396;SDS011;70852;49.908;8.126;2024-01-15T13:13:24;7.85;;;3.30;;
81396;SDS011;70852;49.908;8.126;2024-01-15T13:15:50;7.50;;;2.88;;
81396;SDS011;70852;49.908;8.126;2024-01-15T13:18:15;7.45;;;3.03;;
81396;SDS011;70852;49.908;8.126;2024-01-15T13:20:41;6.05;;;1.80;;
81396;SDS011;70852;49.908;8.126;2024-01-15T13:25:36;6.18;;;2.55;;
81396;SDS011;70852;49.908;8.126;2024-01-15T13:28:03;5.85;;;2.53;;
81396;SDS011;70852;49.908;8.126;2024-01-15T13:30:31;6.30;;;2.45;;
81396;SDS011;70852;49.908;8.126;2024-01-15T13:32:56;7.75;;;2.58;;
81396;SDS011;70852;49.908;8.126;2024-01-15T13:35:22;7.18;;;2.42;;
81396;SDS011;70852;49.908;8.126;2024-01-15T13:37:48;8.88;;;2.55;;
81396;SDS011;70852;49.908;8.126;2024-01-15T13:40:18;4.93;;;2.00;;
81396;SDS011;70852;49.908;8.126;2024-01-15T13:42:45;5.85;;;2.20;;
81396;SDS011;70852;49.908;8.126;2024-01-15T13:45:11;9.10;;;2.63;;
81396;SDS011;70852;49.908;8.126;2024-01-15T13:47:42;7.80;;;2.92;;
81396;SDS011;70852;49.908;8.126;2024-01-15T13:50:08;10.13;;;3.63;;
81396;SDS011;70852;49.908;8.126;2024-01-15T13:52:34;8.82;;;2.28;;
81396;SDS011;70852;49.908;8.126;2024-01-15T13:55:00;3.13;;;1.52;;
81396;SDS011;70852;49.908;8.126;2024-01-15T13:57:25;6.32;;;2.30;;
81396;SDS011;70852;49.908;8.126;2024-01-15T13:59:53;8.82;;;2.67;;
81396;SDS011;70852;49.908;8.126;2024-01-15T14:02:18;5.70;;;1.77;;
81396;SDS011;70852;49.908;8.126;2024-01-15T14:04:45;5.90;;;2.28;;
81396;SDS011;70852;49.908;8.126;2024-01-15T14:07:10;6.72;;;2.17;;
81396;SDS011;70852;49.908;8.126;2024-01-15T14:09:35;4.90;;;1.70;;
81396;SDS011;70852;49.908;8.126;2024-01-15T14:12:02;4.75;;;2.15;;
81396;SDS011;70852;49.908;8.126;2024-01-15T14:14:28;5.50;;;1.95;;
81396;SDS011;70852;49.908;8.126;2024-01-15T14:16:53;4.47;;;1.90;;
81396;SDS011;70852;49.908;8.126;2024-01-15T14:19:20;7.05;;;2.28;;
81396;SDS011;70852;49.908;8.126;2024-01-15T14:21:46;6.75;;;2.63;;
81396;SDS011;70852;49.908;8.126;2024-01-15T14:24:13;11.18;;;3.70;;
81396;SDS011;70852;49.908;8.126;2024-01-15T14:26:39;8.73;;;3.10;;
81396;SDS011;70852;49.908;8.126;2024-01-15T14:29:07;12.10;;;3.15;;
81396;SDS011;70852;49.908;8.126;2024-01-15T14:31:34;8.63;;;2.88;;
81396;SDS011;70852;49.908;8.126;2024-01-15T14:34:00;11.40;;;3.35;;
81396;SDS011;70852;49.908;8.126;2024-01-15T14:36:27;7.35;;;2.78;;
81396;SDS011;70852;49.908;8.126;2024-01-15T14:38:55;5.70;;;2.17;;
81396;SDS011;70852;49.908;8.126;2024-01-15T14:41:20;10.70;;;3.47;;
81396;SDS011;70852;49.908;8.126;2024-01-15T14:43:45;6.60;;;2.92;;
81396;SDS011;70852;49.908;8.126;2024-01-15T14:46:13;5.95;;;2.15;;
81396;SDS011;70852;49.908;8.126;2024-01-15T14:48:38;5.70;;;1.70;;
81396;SDS011;70852;49.908;8.126;2024-01-15T14:51:07;4.50;;;1.70;;
81396;SDS011;70852;49.908;8.126;2024-01-15T14:53:35;5.43;;;1.92;;
81396;SDS011;70852;49.908;8.126;2024-01-15T14:56:00;5.53;;;1.75;;
81396;SDS011;70852;49.908;8.126;2024-01-15T14:58:27;6.53;;;2.25;;
81396;SDS011;70852;49.908;8.126;2024-01-15T15:00:55;4.13;;;1.40;;
81396;SDS011;70852;49.908;8.126;2024-01-15T15:03:20;4.47;;;1.73;;
81396;SDS011;70852;49.908;8.126;2024-01-15T15:05:46;5.43;;;1.80;;
81396;SDS011;70852;49.908;8.126;2024-01-15T15:08:11;4.60;;;1.80;;
81396;SDS011;70852;49.908;8.126;2024-01-15T15:10:39;4.88;;;1.67;;
81396;SDS011;70852;49.908;8.126;2024-01-15T15:13:05;7.00;;;1.63;;
81396;SDS011;70852;49.908;8.126;2024-01-15T15:15:35;6.22;;;1.80;;